createdAt,value
2018-10-19T00:00:10.456Z,0.00
2018-10-19T00:01:10.445Z,0.00
2018-10-19T00:02:10.434Z,0.00
2018-10-19T00:03:10.462Z,0.00
2018-10-19T00:04:10.413Z,0.00
2018-10-19T00:05:10.541Z,0.00
2018-10-19T00:06:10.399Z,0.00
2018-10-19T00:07:10.389Z,0.00
2018-10-19T00:08:10.398Z,0.00
2018-10-19T00:09:10.460Z,0.00
2018-10-19T00:10:10.350Z,0.00
2018-10-19T00:11:10.389Z,0.00
2018-10-19T00:12:10.325Z,0.00
2018-10-19T00:13:10.329Z,0.00
2018-10-19T00:14:10.336Z,0.00
2018-10-19T00:15:10.402Z,0.00
2018-10-19T00:16:10.284Z,0.00
2018-10-19T00:17:10.420Z,0.00
2018-10-19T00:18:10.276Z,0.00
2018-10-19T00:19:10.257Z,0.00
2018-10-19T00:20:10.265Z,0.00
2018-10-19T00:21:10.315Z,0.00
2018-10-19T00:22:10.218Z,0.00
2018-10-19T00:23:10.279Z,0.00
2018-10-19T00:24:10.197Z,0.00
2018-10-19T00:25:10.188Z,0.00
2018-10-19T00:26:10.196Z,0.00
2018-10-19T00:27:10.286Z,0.00
2018-10-19T00:28:10.223Z,0.00
2018-10-19T00:29:10.205Z,0.00
2018-10-19T00:30:10.135Z,0.00
2018-10-19T00:31:10.135Z,0.00
2018-10-19T00:32:10.136Z,0.00
2018-10-19T00:33:10.181Z,0.00
2018-10-19T00:34:10.087Z,0.00
2018-10-19T00:35:10.161Z,0.00
2018-10-19T00:36:10.067Z,0.00
2018-10-19T00:37:10.055Z,0.00
2018-10-19T00:38:10.078Z,0.00
2018-10-19T00:39:10.146Z,0.00
2018-10-19T00:40:10.024Z,0.00
2018-10-19T00:41:10.045Z,0.00
2018-10-19T00:42:10.005Z,0.00
2018-10-19T00:43:10.007Z,0.00
2018-10-19T00:44:09.980Z,0.00
2018-10-19T00:45:10.042Z,0.00
2018-10-19T00:46:09.988Z,0.00
2018-10-19T00:47:10.109Z,0.00
2018-10-19T00:48:10.103Z,0.00
2018-10-19T00:49:09.984Z,0.00
2018-10-19T00:50:09.967Z,0.00
2018-10-19T00:51:10.065Z,0.00
2018-10-19T00:52:09.906Z,0.00
2018-10-19T00:53:10.048Z,0.00
2018-10-19T00:54:09.874Z,0.00
2018-10-19T00:55:09.862Z,0.00
2018-10-19T00:56:09.851Z,0.00
2018-10-19T00:57:09.911Z,0.00
2018-10-19T00:58:09.829Z,0.00
2018-10-19T00:59:09.957Z,0.00
2018-10-19T01:00:09.807Z,0.00
2018-10-19T01:01:09.799Z,0.00
2018-10-19T01:02:09.796Z,0.00
2018-10-19T01:03:09.945Z,0.00
2018-10-19T01:04:09.776Z,0.00
2018-10-19T01:05:09.823Z,0.00
2018-10-19T01:06:09.763Z,0.00
2018-10-19T01:07:09.734Z,0.00
2018-10-19T01:08:09.723Z,0.00
2018-10-19T01:09:09.837Z,0.00
2018-10-19T01:10:09.703Z,0.00
2018-10-19T01:11:09.766Z,0.00
2018-10-19T01:12:09.690Z,0.00
2018-10-19T01:13:09.667Z,0.00
2018-10-19T01:14:09.665Z,0.00
2018-10-19T01:15:09.657Z,0.00
2018-10-19T01:16:09.700Z,0.00
2018-10-19T01:17:09.663Z,0.00
2018-10-19T01:18:09.611Z,0.00
2018-10-19T01:19:09.614Z,0.00
2018-10-19T01:20:09.590Z,0.00
2018-10-19T01:21:09.694Z,0.00
2018-10-19T01:22:09.582Z,0.00
2018-10-19T01:23:09.658Z,0.00
2018-10-19T01:24:09.560Z,0.00
2018-10-19T01:25:09.541Z,0.00
2018-10-19T01:26:09.524Z,0.00
2018-10-19T01:27:09.542Z,0.00
2018-10-19T01:28:09.509Z,0.00
2018-10-19T01:29:09.565Z,0.00
2018-10-19T01:30:09.480Z,0.00
2018-10-19T01:31:09.473Z,0.00
2018-10-19T01:32:09.460Z,0.00
2018-10-19T01:33:09.545Z,0.00
2018-10-19T01:34:09.463Z,0.00
2018-10-19T01:35:09.524Z,0.00
2018-10-19T01:36:09.460Z,0.00
2018-10-19T01:37:09.407Z,0.00
2018-10-19T01:38:09.483Z,0.00
2018-10-19T01:39:09.448Z,0.00
2018-10-19T01:40:09.380Z,0.00
2018-10-19T01:41:09.458Z,0.00
2018-10-19T01:42:09.350Z,0.00
2018-10-19T01:43:09.341Z,0.00
2018-10-19T01:44:09.344Z,0.00
2018-10-19T01:45:09.383Z,0.00
2018-10-19T01:46:09.309Z,0.00
2018-10-19T01:47:09.439Z,0.00
2018-10-19T01:48:09.289Z,0.00
2018-10-19T01:49:09.289Z,0.00
2018-10-19T01:50:09.282Z,0.00
2018-10-19T01:51:09.309Z,0.00
2018-10-19T01:52:09.243Z,0.00
2018-10-19T01:53:09.324Z,0.00
2018-10-19T01:54:09.249Z,0.00
2018-10-19T01:55:09.212Z,0.00
2018-10-19T01:56:09.200Z,0.00
2018-10-19T01:57:09.199Z,0.00
2018-10-19T01:58:09.177Z,0.00
2018-10-19T01:59:09.189Z,0.00
2018-10-19T02:00:09.174Z,0.00
2018-10-19T02:01:09.148Z,0.00
2018-10-19T02:02:09.158Z,0.00
2018-10-19T02:03:09.179Z,0.00
2018-10-19T02:04:09.144Z,0.00
2018-10-19T02:05:09.159Z,0.00
2018-10-19T02:06:09.097Z,0.00
2018-10-19T02:07:09.100Z,0.00
2018-10-19T02:08:09.071Z,0.00
2018-10-19T02:09:09.151Z,0.00
2018-10-19T02:10:09.068Z,0.00
2018-10-19T02:11:09.137Z,0.00
2018-10-19T02:12:09.033Z,0.00
2018-10-19T02:13:09.035Z,0.00
2018-10-19T02:14:09.079Z,0.00
2018-10-19T02:15:09.084Z,0.00
2018-10-19T02:16:09.007Z,0.00
2018-10-19T02:17:09.151Z,0.00
2018-10-19T02:18:08.965Z,0.00
2018-10-19T02:19:08.953Z,0.00
2018-10-19T02:20:08.954Z,0.00
2018-10-19T02:21:09.033Z,0.00
2018-10-19T02:22:08.929Z,0.00
2018-10-19T02:23:08.949Z,0.00
2018-10-19T02:24:08.904Z,0.00
2018-10-19T02:25:08.900Z,0.00
2018-10-19T02:26:08.876Z,0.00
2018-10-19T02:27:08.982Z,0.00
2018-10-19T02:28:08.855Z,0.00
2018-10-19T02:29:08.994Z,0.00
2018-10-19T02:30:08.865Z,0.00
2018-10-19T02:31:08.854Z,0.00
2018-10-19T02:32:08.843Z,0.00
2018-10-19T02:33:08.878Z,0.00
2018-10-19T02:34:08.790Z,0.00
2018-10-19T02:35:08.832Z,0.00
2018-10-19T02:36:08.781Z,0.00
2018-10-19T02:37:08.786Z,0.00
2018-10-19T02:38:08.751Z,0.00
2018-10-19T02:39:09.624Z,0.00
2018-10-19T02:40:08.742Z,0.00
2018-10-19T02:41:08.813Z,0.00
2018-10-19T02:42:08.702Z,0.00
2018-10-19T02:43:08.707Z,0.00
2018-10-19T02:44:08.682Z,0.00
2018-10-19T02:45:08.774Z,0.00
2018-10-19T02:46:08.672Z,0.00
2018-10-19T02:47:08.761Z,0.00
2018-10-19T02:48:08.656Z,0.00
2018-10-19T02:49:08.626Z,0.00
2018-10-19T02:50:08.665Z,0.00
2018-10-19T02:51:08.694Z,0.00
2018-10-19T02:52:08.601Z,0.00
2018-10-19T02:53:08.618Z,0.00
2018-10-19T02:54:08.576Z,0.00
2018-10-19T02:55:08.612Z,0.00
2018-10-19T02:56:08.570Z,0.00
2018-10-19T02:57:08.655Z,0.00
2018-10-19T02:58:08.531Z,0.00
2018-10-19T02:59:08.566Z,0.00
2018-10-19T03:00:08.547Z,0.00
2018-10-19T03:01:08.519Z,0.00
2018-10-19T03:02:08.487Z,0.00
2018-10-19T03:03:08.536Z,0.00
2018-10-19T03:04:08.473Z,0.00
2018-10-19T03:05:08.497Z,0.00
2018-10-19T03:06:08.445Z,0.00
2018-10-19T03:07:08.489Z,0.00
2018-10-19T03:08:08.422Z,0.00
2018-10-19T03:09:08.474Z,0.00
2018-10-19T03:10:08.424Z,0.00
2018-10-19T03:11:08.496Z,0.00
2018-10-19T03:12:08.382Z,0.00
2018-10-19T03:13:08.367Z,0.00
2018-10-19T03:14:08.358Z,0.00
2018-10-19T03:15:08.415Z,0.00
2018-10-19T03:16:08.355Z,0.00
2018-10-19T03:17:08.383Z,0.00
2018-10-19T03:18:08.321Z,0.00
2018-10-19T03:19:08.303Z,0.00
2018-10-19T03:20:08.304Z,0.00
2018-10-19T03:21:08.335Z,0.00
2018-10-19T03:22:08.291Z,0.00
2018-10-19T03:23:08.393Z,0.00
2018-10-19T03:24:08.251Z,0.00
2018-10-19T03:25:08.283Z,0.00
2018-10-19T03:26:08.227Z,0.00
2018-10-19T03:27:08.366Z,0.00
2018-10-19T03:28:08.205Z,0.00
2018-10-19T03:29:08.285Z,0.00
2018-10-19T03:30:08.251Z,0.00
2018-10-19T03:31:08.345Z,0.00
2018-10-19T03:32:08.193Z,0.00
2018-10-19T03:33:08.254Z,0.00
2018-10-19T03:34:08.138Z,0.00
2018-10-19T03:35:08.190Z,0.00
2018-10-19T03:36:08.131Z,0.00
2018-10-19T03:37:08.106Z,0.00
2018-10-19T03:38:08.122Z,0.00
2018-10-19T03:39:08.167Z,0.00
2018-10-19T03:40:08.099Z,0.00
2018-10-19T03:41:08.152Z,0.00
2018-10-19T03:42:08.050Z,0.00
2018-10-19T03:43:08.055Z,0.00
2018-10-19T03:44:08.033Z,0.00
2018-10-19T03:45:08.177Z,0.00
2018-10-19T03:46:08.051Z,0.00
2018-10-19T03:47:08.080Z,0.00
2018-10-19T03:48:08.001Z,0.00
2018-10-19T03:49:08.073Z,0.00
2018-10-19T03:50:07.965Z,0.00
2018-10-19T03:51:08.080Z,0.00
2018-10-19T03:52:07.963Z,0.00
2018-10-19T03:53:08.001Z,0.00
2018-10-19T03:54:07.928Z,0.00
2018-10-19T03:55:07.920Z,0.00
2018-10-19T03:56:07.914Z,0.00
2018-10-19T03:57:07.982Z,0.00
2018-10-19T03:58:07.886Z,0.00
2018-10-19T03:59:07.952Z,0.00
2018-10-19T04:00:07.861Z,0.00
2018-10-19T04:01:07.870Z,0.00
2018-10-19T04:02:07.869Z,0.00
2018-10-19T04:03:08.004Z,0.00
2018-10-19T04:04:07.819Z,0.00
2018-10-19T04:05:07.844Z,0.00
2018-10-19T04:06:08.211Z,0.00
2018-10-19T04:07:07.786Z,0.00
2018-10-19T04:08:07.801Z,0.00
2018-10-19T04:09:07.882Z,0.00
2018-10-19T04:10:07.749Z,0.00
2018-10-19T04:11:07.772Z,0.00
2018-10-19T04:12:07.809Z,0.00
2018-10-19T04:13:07.717Z,0.00
2018-10-19T04:14:07.725Z,0.00
2018-10-19T04:15:07.755Z,0.00
2018-10-19T04:16:07.703Z,0.00
2018-10-19T04:17:07.717Z,0.00
2018-10-19T04:18:07.670Z,0.00
2018-10-19T04:19:07.652Z,0.00
2018-10-19T04:20:07.687Z,0.00
2018-10-19T04:21:07.751Z,0.00
2018-10-19T04:22:07.620Z,0.00
2018-10-19T04:23:07.636Z,0.00
2018-10-19T04:24:07.612Z,0.00
2018-10-19T04:25:07.586Z,0.00
2018-10-19T04:26:07.608Z,0.00
2018-10-19T04:27:07.664Z,0.00
2018-10-19T04:28:07.554Z,0.00
2018-10-19T04:29:07.679Z,0.00
2018-10-19T04:30:07.532Z,0.00
2018-10-19T04:31:07.541Z,0.00
2018-10-19T04:32:07.509Z,0.00
2018-10-19T04:33:07.603Z,0.00
2018-10-19T04:34:07.489Z,0.00
2018-10-19T04:35:07.517Z,0.00
2018-10-19T04:36:07.488Z,0.00
2018-10-19T04:37:07.455Z,0.00
2018-10-19T04:38:07.447Z,0.00
2018-10-19T04:39:07.571Z,0.00
2018-10-19T04:40:07.434Z,0.00
2018-10-19T04:41:07.561Z,0.00
2018-10-19T04:42:07.500Z,0.00
2018-10-19T04:43:07.399Z,0.00
2018-10-19T04:44:07.382Z,0.00
2018-10-19T04:45:07.432Z,0.00
2018-10-19T04:46:07.376Z,0.00
2018-10-19T04:47:07.388Z,0.00
2018-10-19T04:48:07.337Z,0.00
2018-10-19T04:49:07.328Z,0.00
2018-10-19T04:50:07.320Z,0.00
2018-10-19T04:51:07.422Z,0.00
2018-10-19T04:52:07.350Z,0.00
2018-10-19T04:53:07.444Z,0.00
2018-10-19T04:54:07.283Z,0.00
2018-10-19T04:55:07.261Z,0.00
2018-10-19T04:56:07.251Z,0.00
2018-10-19T04:57:07.357Z,0.00
2018-10-19T04:58:07.239Z,0.00
2018-10-19T04:59:07.309Z,0.00
2018-10-19T05:00:07.253Z,0.00
2018-10-19T05:01:07.200Z,0.00
2018-10-19T05:02:07.670Z,0.00
2018-10-19T05:03:07.256Z,0.00
2018-10-19T05:04:07.210Z,0.00
2018-10-19T05:05:07.193Z,0.00
2018-10-19T05:06:07.209Z,0.00
2018-10-19T05:07:07.341Z,0.00
2018-10-19T05:08:07.204Z,0.00
2018-10-19T05:09:07.115Z,0.00
2018-10-19T05:10:07.121Z,0.00
2018-10-19T05:11:07.157Z,0.00
2018-10-19T05:12:07.143Z,0.00
2018-10-19T05:13:07.091Z,0.00
2018-10-19T05:14:07.073Z,0.00
2018-10-19T05:15:07.068Z,0.00
2018-10-19T05:16:07.037Z,0.00
2018-10-19T05:17:07.049Z,0.00
2018-10-19T05:18:07.015Z,0.00
2018-10-19T05:19:07.005Z,0.00
2018-10-19T05:20:07.063Z,0.00
2018-10-19T05:21:07.001Z,0.00
2018-10-19T05:22:06.992Z,0.00
2018-10-19T05:23:07.004Z,0.00
2018-10-19T05:24:06.952Z,4.00
2018-10-19T05:25:06.940Z,0.00
2018-10-19T05:26:07.013Z,0.00
2018-10-19T05:27:06.963Z,4.00
2018-10-19T05:28:06.916Z,4.00
2018-10-19T05:29:06.952Z,4.00
2018-10-19T05:30:06.885Z,8.00
2018-10-19T05:31:06.872Z,8.00
2018-10-19T05:32:06.948Z,8.00
2018-10-19T05:33:06.891Z,8.00
2018-10-19T05:34:06.843Z,12.00
2018-10-19T05:35:06.878Z,12.00
2018-10-19T05:36:06.820Z,16.00
2018-10-19T05:37:06.841Z,20.00
2018-10-19T05:38:06.878Z,24.00
2018-10-19T05:39:06.789Z,28.00
2018-10-19T05:40:06.791Z,32.00
2018-10-19T05:41:06.888Z,36.00
2018-10-19T05:42:06.790Z,44.00
2018-10-19T05:43:06.781Z,52.00
2018-10-19T05:44:06.810Z,60.00
2018-10-19T05:45:06.724Z,68.00
2018-10-19T05:46:06.714Z,80.00
2018-10-19T05:47:06.781Z,88.00
2018-10-19T05:48:06.714Z,104.00
2018-10-19T05:49:06.678Z,112.00
2018-10-19T05:50:06.761Z,120.00
2018-10-19T05:51:06.734Z,136.00
2018-10-19T05:52:06.720Z,148.00
2018-10-19T05:53:06.707Z,160.00
2018-10-19T05:54:06.627Z,180.00
2018-10-19T05:55:06.622Z,200.00
2018-10-19T05:56:06.695Z,216.00
2018-10-19T05:57:06.604Z,236.00
2018-10-19T05:58:06.582Z,252.00
2018-10-19T05:59:06.599Z,264.00
2018-10-19T06:00:06.573Z,280.00
2018-10-19T06:01:06.570Z,300.00
2018-10-19T06:02:06.650Z,328.00
2018-10-19T06:03:06.529Z,348.00
2018-10-19T06:04:06.518Z,376.00
2018-10-19T06:05:06.576Z,400.00
2018-10-19T06:06:06.508Z,428.00
2018-10-19T06:07:06.502Z,456.00
2018-10-19T06:08:06.570Z,484.00
2018-10-19T06:09:06.460Z,532.00
2018-10-19T06:10:06.449Z,572.00
2018-10-19T06:11:06.482Z,592.00
2018-10-19T06:12:06.459Z,624.00
2018-10-19T06:13:06.428Z,660.00
2018-10-19T06:14:06.437Z,680.00
2018-10-19T06:15:06.394Z,696.00
2018-10-19T06:16:06.396Z,720.00
2018-10-19T06:17:06.427Z,728.00
2018-10-19T06:18:06.359Z,732.00
2018-10-19T06:19:06.363Z,756.00
2018-10-19T06:20:06.351Z,816.00
2018-10-19T06:21:06.337Z,884.00
2018-10-19T06:22:06.710Z,940.00
2018-10-19T06:23:06.376Z,984.00
2018-10-19T06:24:06.323Z,1052.00
2018-10-19T06:25:06.342Z,1092.00
2018-10-19T06:26:06.341Z,1148.00
2018-10-19T06:27:06.283Z,1216.00
2018-10-19T06:28:06.251Z,1300.00
2018-10-19T06:29:06.348Z,1340.00
2018-10-19T06:30:06.282Z,1360.00
2018-10-19T06:31:06.276Z,1436.00
2018-10-19T06:32:06.311Z,1516.00
2018-10-19T06:33:06.199Z,1564.00
2018-10-19T06:34:06.200Z,1592.00
2018-10-19T06:35:06.270Z,1612.00
2018-10-19T06:36:06.197Z,1660.00
2018-10-19T06:37:06.227Z,1744.00
2018-10-19T06:38:06.161Z,1840.00
2018-10-19T06:39:06.172Z,1924.00
2018-10-19T06:40:06.121Z,2040.00
2018-10-19T06:41:06.165Z,2164.00
2018-10-19T06:42:06.112Z,2284.00
2018-10-19T06:43:06.090Z,2352.00
2018-10-19T06:44:06.160Z,2424.00
2018-10-19T06:45:06.065Z,2492.00
2018-10-19T06:46:06.075Z,2564.00
2018-10-19T06:47:06.301Z,2692.00
2018-10-19T06:48:06.042Z,2748.00
2018-10-19T06:49:06.084Z,2752.00
2018-10-19T06:50:06.018Z,2708.00
2018-10-19T06:51:06.007Z,2636.00
2018-10-19T06:52:06.028Z,2500.00
2018-10-19T06:53:06.023Z,2468.00
2018-10-19T06:54:05.972Z,2476.00
2018-10-19T06:55:05.960Z,2368.00
2018-10-19T06:56:06.088Z,2244.00
2018-10-19T06:57:05.960Z,2228.00
2018-10-19T06:58:05.957Z,2136.00
2018-10-19T06:59:06.005Z,2080.00
2018-10-19T07:00:05.900Z,2132.00
2018-10-19T07:01:05.891Z,2188.00
2018-10-19T07:02:05.940Z,2252.00
2018-10-19T07:03:05.894Z,2304.00
2018-10-19T07:04:05.859Z,2356.00
2018-10-19T07:05:05.944Z,2392.00
2018-10-19T07:06:05.891Z,2440.00
2018-10-19T07:07:05.838Z,2484.00
2018-10-19T07:08:05.932Z,2520.00
2018-10-19T07:09:05.804Z,2600.00
2018-10-19T07:10:05.817Z,2724.00
2018-10-19T07:11:05.901Z,3092.00
2018-10-19T07:12:05.814Z,3596.00
2018-10-19T07:13:05.778Z,3708.00
2018-10-19T07:14:05.796Z,3812.00
2018-10-19T07:15:05.744Z,3952.00
2018-10-19T07:16:05.751Z,3888.00
2018-10-19T07:17:05.802Z,3904.00
2018-10-19T07:18:05.709Z,4072.00
2018-10-19T07:19:05.780Z,3988.00
2018-10-19T07:20:05.726Z,3308.00
2018-10-19T07:21:05.702Z,2860.00
2018-10-19T07:22:05.680Z,2824.00
2018-10-19T07:23:05.685Z,2848.00
2018-10-19T07:24:05.645Z,2984.00
2018-10-19T07:25:05.628Z,3144.00
2018-10-19T07:26:05.689Z,3072.00
2018-10-19T07:27:05.678Z,2816.00
2018-10-19T07:28:05.600Z,2752.00
2018-10-19T07:29:05.615Z,2900.00
2018-10-19T07:30:05.589Z,3020.00
2018-10-19T07:31:05.573Z,3156.00
2018-10-19T07:32:05.613Z,3276.00
2018-10-19T07:33:05.542Z,3408.00
2018-10-19T07:34:05.532Z,3340.00
2018-10-19T07:35:05.594Z,3052.00
2018-10-19T07:36:05.510Z,2724.00
2018-10-19T07:37:05.517Z,2560.00
2018-10-19T07:38:05.564Z,2480.00
2018-10-19T07:39:05.478Z,2456.00
2018-10-19T07:40:05.503Z,2500.00
2018-10-19T07:41:05.458Z,2604.00
2018-10-19T07:42:05.628Z,2788.00
2018-10-19T07:43:05.445Z,3204.00
2018-10-19T07:44:05.504Z,3276.00
2018-10-19T07:45:05.412Z,3392.00
2018-10-19T07:46:05.470Z,3444.00
2018-10-19T07:47:05.732Z,3548.00
2018-10-19T07:48:05.549Z,3864.00
2018-10-19T07:49:05.409Z,4460.00
2018-10-19T07:50:05.403Z,4996.00
2018-10-19T07:51:05.360Z,5268.00
2018-10-19T07:52:05.403Z,5580.00
2018-10-19T07:53:05.372Z,5460.00
2018-10-19T07:54:05.379Z,5664.00
2018-10-19T07:55:05.321Z,5792.00
2018-10-19T07:56:05.327Z,5872.00
2018-10-19T07:57:05.295Z,5888.00
2018-10-19T07:58:05.287Z,6084.00
2018-10-19T07:59:05.301Z,6148.00
2018-10-19T08:00:05.300Z,6444.00
2018-10-19T08:01:05.276Z,6916.00
2018-10-19T08:02:05.334Z,7024.00
2018-10-19T08:03:05.216Z,6852.00
2018-10-19T08:04:05.208Z,6712.00
2018-10-19T08:05:05.274Z,6756.00
2018-10-19T08:06:05.206Z,6900.00
2018-10-19T08:07:05.234Z,6644.00
2018-10-19T08:08:05.170Z,6084.00
2018-10-19T08:09:05.150Z,6416.00
2018-10-19T08:10:05.148Z,6912.00
2018-10-19T08:11:05.170Z,6868.00
2018-10-19T08:12:05.137Z,6832.00
2018-10-19T08:13:05.107Z,6768.00
2018-10-19T08:14:05.165Z,6540.00
2018-10-19T08:15:05.125Z,6592.00
2018-10-19T08:16:05.079Z,6848.00
2018-10-19T08:17:05.104Z,6984.00
2018-10-19T08:18:05.053Z,6460.00
2018-10-19T08:19:05.041Z,6392.00
2018-10-19T08:20:05.075Z,6440.00
2018-10-19T08:21:05.055Z,6512.00
2018-10-19T08:22:05.035Z,6824.00
2018-10-19T08:23:05.058Z,7284.00
2018-10-19T08:24:05.027Z,7200.00
2018-10-19T08:25:04.992Z,6696.00
2018-10-19T08:26:05.060Z,6412.00
2018-10-19T08:27:04.983Z,5816.00
2018-10-19T08:28:04.948Z,5348.00
2018-10-19T08:29:04.974Z,6028.00
2018-10-19T08:30:04.931Z,6620.00
2018-10-19T08:31:04.917Z,7048.00
2018-10-19T08:32:04.945Z,7072.00
2018-10-19T08:33:04.924Z,7080.00
2018-10-19T08:34:04.888Z,7136.00
2018-10-19T08:35:04.896Z,7084.00
2018-10-19T08:36:04.869Z,6944.00
2018-10-19T08:37:04.846Z,6776.00
2018-10-19T08:38:04.863Z,6688.00
2018-10-19T08:39:04.826Z,6772.00
2018-10-19T08:40:04.813Z,6952.00
2018-10-19T08:41:04.909Z,7124.00
2018-10-19T08:42:04.791Z,7068.00
2018-10-19T08:43:04.834Z,6928.00
2018-10-19T08:44:04.769Z,7060.00
2018-10-19T08:45:04.797Z,7240.00
2018-10-19T08:46:04.759Z,7336.00
2018-10-19T08:47:04.789Z,7520.00
2018-10-19T08:48:04.738Z,7676.00
2018-10-19T08:49:04.812Z,7964.00
2018-10-19T08:50:04.703Z,8580.00
2018-10-19T08:51:04.705Z,9348.00
2018-10-19T08:52:04.682Z,10184.00
2018-10-19T08:53:04.705Z,10888.00
2018-10-19T08:54:04.685Z,11668.00
2018-10-19T08:55:04.767Z,11372.00
2018-10-19T08:56:04.662Z,10592.00
2018-10-19T08:57:04.684Z,9968.00
2018-10-19T08:58:04.664Z,9164.00
2018-10-19T08:59:04.660Z,8568.00
2018-10-19T09:00:04.613Z,8492.00
2018-10-19T09:01:04.603Z,8276.00
2018-10-19T09:02:04.603Z,7756.00
2018-10-19T09:03:04.664Z,7452.00
2018-10-19T09:04:04.582Z,7556.00
2018-10-19T09:05:04.610Z,7540.00
2018-10-19T09:06:04.552Z,7592.00
2018-10-19T09:07:04.526Z,7760.00
2018-10-19T09:08:04.567Z,7984.00
2018-10-19T09:09:04.533Z,7904.00
2018-10-19T09:10:04.550Z,7860.00
2018-10-19T09:11:04.543Z,7964.00
2018-10-19T09:12:04.479Z,8120.00
2018-10-19T09:13:04.501Z,8452.00
2018-10-19T09:14:04.469Z,8800.00
2018-10-19T09:15:04.467Z,9036.00
2018-10-19T09:16:04.453Z,8968.00
2018-10-19T09:17:04.477Z,8984.00
2018-10-19T09:18:04.437Z,9184.00
2018-10-19T09:19:04.421Z,9416.00
2018-10-19T09:20:04.400Z,9512.00
2018-10-19T09:21:04.455Z,9756.00
2018-10-19T09:22:04.367Z,9696.00
2018-10-19T09:23:04.399Z,9396.00
2018-10-19T09:24:04.340Z,9540.00
2018-10-19T09:25:04.331Z,9468.00
2018-10-19T09:26:04.350Z,9124.00
2018-10-19T09:27:04.396Z,8996.00
2018-10-19T09:28:04.318Z,8916.00
2018-10-19T09:29:04.330Z,8704.00
2018-10-19T09:30:04.270Z,8112.00
2018-10-19T09:31:04.264Z,7448.00
2018-10-19T09:32:04.263Z,7100.00
2018-10-19T09:33:04.292Z,7352.00
2018-10-19T09:34:04.233Z,7872.00
2018-10-19T09:35:04.250Z,7744.00
2018-10-19T09:36:04.362Z,7144.00
2018-10-19T09:37:04.243Z,6948.00
2018-10-19T09:38:04.203Z,7316.00
2018-10-19T09:39:04.214Z,7920.00
2018-10-19T09:40:04.229Z,8840.00
2018-10-19T09:41:04.310Z,9456.00
2018-10-19T09:42:04.197Z,9268.00
2018-10-19T09:43:04.209Z,9724.00
2018-10-19T09:44:04.119Z,10028.00
2018-10-19T09:45:04.119Z,9736.00
2018-10-19T09:46:04.089Z,9348.00
2018-10-19T09:47:04.117Z,9448.00
2018-10-19T09:48:04.086Z,9852.00
2018-10-19T09:49:04.116Z,9696.00
2018-10-19T09:50:04.056Z,9520.00
2018-10-19T09:51:04.051Z,9656.00
2018-10-19T09:52:04.052Z,9868.00
2018-10-19T09:53:04.082Z,10168.00
2018-10-19T09:54:04.013Z,10600.00
2018-10-19T09:55:04.032Z,10988.00
2018-10-19T09:56:04.026Z,10544.00
2018-10-19T09:57:04.019Z,10468.00
2018-10-19T09:58:03.973Z,10112.00
2018-10-19T09:59:03.977Z,9876.00
2018-10-19T10:00:03.943Z,9964.00
2018-10-19T10:01:03.982Z,10188.00
2018-10-19T10:02:04.035Z,10996.00
2018-10-19T10:03:03.957Z,10992.00
2018-10-19T10:04:03.915Z,10476.00
2018-10-19T10:05:03.904Z,9992.00
2018-10-19T10:06:03.869Z,10052.00
2018-10-19T10:07:03.908Z,10512.00
2018-10-19T10:08:04.011Z,10888.00
2018-10-19T10:09:03.892Z,11044.00
2018-10-19T10:10:03.841Z,11212.00
2018-10-19T10:11:03.871Z,11232.00
2018-10-19T10:12:03.838Z,10880.00
2018-10-19T10:13:03.873Z,10736.00
2018-10-19T10:14:03.787Z,10580.00
2018-10-19T10:15:03.946Z,10516.00
2018-10-19T10:16:03.806Z,10484.00
2018-10-19T10:17:03.790Z,10628.00
2018-10-19T10:18:03.751Z,10756.00
2018-10-19T10:19:03.768Z,10856.00
2018-10-19T10:20:03.772Z,10996.00
2018-10-19T10:21:03.727Z,11156.00
2018-10-19T10:22:03.748Z,11404.00
2018-10-19T10:23:03.712Z,11788.00
2018-10-19T10:24:03.698Z,11844.00
2018-10-19T10:25:03.692Z,11596.00
2018-10-19T10:26:03.678Z,11156.00
2018-10-19T10:27:03.648Z,11096.00
2018-10-19T10:28:03.674Z,11840.00
2018-10-19T10:29:03.654Z,12648.00
2018-10-19T10:30:03.613Z,13960.00
2018-10-19T10:31:03.668Z,14828.00
2018-10-19T10:32:03.647Z,14404.00
2018-10-19T10:33:03.602Z,13180.00
2018-10-19T10:34:03.697Z,12244.00
2018-10-19T10:35:03.568Z,12572.00
2018-10-19T10:36:03.543Z,13600.00
2018-10-19T10:37:03.602Z,13692.00
2018-10-19T10:38:03.536Z,13108.00
2018-10-19T10:39:03.647Z,12064.00
2018-10-19T10:40:03.579Z,11452.00
2018-10-19T10:41:03.494Z,11396.00
2018-10-19T10:42:03.505Z,11408.00
2018-10-19T10:43:03.568Z,11456.00
2018-10-19T10:44:03.464Z,11324.00
2018-10-19T10:45:03.463Z,11300.00
2018-10-19T10:46:03.477Z,11636.00
2018-10-19T10:47:03.544Z,11552.00
2018-10-19T10:48:03.442Z,11052.00
2018-10-19T10:49:03.456Z,10888.00
2018-10-19T10:50:03.397Z,10944.00
2018-10-19T10:51:03.403Z,11036.00
2018-10-19T10:52:03.406Z,11304.00
2018-10-19T10:53:03.405Z,11368.00
2018-10-19T10:54:03.356Z,11108.00
2018-10-19T10:55:03.424Z,10940.00
2018-10-19T10:56:03.339Z,10660.00
2018-10-19T10:57:03.323Z,10380.00
2018-10-19T10:58:03.403Z,10348.00
2018-10-19T10:59:03.310Z,10396.00
2018-10-19T11:00:03.301Z,10236.00
2018-10-19T11:01:03.304Z,9920.00
2018-10-19T11:02:03.297Z,9624.00
2018-10-19T11:03:03.273Z,9712.00
2018-10-19T11:04:03.290Z,9920.00
2018-10-19T11:05:03.229Z,10260.00
2018-10-19T11:06:03.235Z,10396.00
2018-10-19T11:07:03.294Z,10100.00
2018-10-19T11:08:03.213Z,9888.00
2018-10-19T11:09:03.223Z,9796.00
2018-10-19T11:10:03.213Z,9860.00
2018-10-19T11:11:03.166Z,9980.00
2018-10-19T11:12:03.156Z,9764.00
2018-10-19T11:13:03.221Z,9612.00
2018-10-19T11:14:03.155Z,9556.00
2018-10-19T11:15:03.122Z,9508.00
2018-10-19T11:16:03.185Z,9496.00
2018-10-19T11:17:03.107Z,9248.00
2018-10-19T11:18:03.106Z,9060.00
2018-10-19T11:19:03.142Z,9116.00
2018-10-19T11:20:03.095Z,9308.00
2018-10-19T11:21:03.070Z,9500.00
2018-10-19T11:22:03.070Z,9688.00
2018-10-19T11:23:03.081Z,9732.00
2018-10-19T11:24:03.080Z,9784.00
2018-10-19T11:25:03.048Z,10056.00
2018-10-19T11:26:03.024Z,10316.00
2018-10-19T11:27:02.987Z,10548.00
2018-10-19T11:28:03.042Z,10872.00
2018-10-19T11:29:02.985Z,10788.00
2018-10-19T11:30:02.970Z,10340.00
2018-10-19T11:31:02.967Z,10248.00
2018-10-19T11:32:02.944Z,10648.00
2018-10-19T11:33:03.006Z,10964.00
2018-10-19T11:34:02.956Z,11200.00
2018-10-19T11:35:02.904Z,11548.00
2018-10-19T11:36:02.903Z,11688.00
2018-10-19T11:37:02.920Z,11956.00
2018-10-19T11:38:02.931Z,12092.00
2018-10-19T11:39:02.902Z,12016.00
2018-10-19T11:40:02.890Z,12088.00
2018-10-19T11:41:02.851Z,12404.00
2018-10-19T11:42:02.832Z,12600.00
2018-10-19T11:43:02.893Z,13236.00
2018-10-19T11:44:02.827Z,13988.00
2018-10-19T11:45:02.808Z,14536.00
2018-10-19T11:46:02.849Z,14872.00
2018-10-19T11:47:02.779Z,15060.00
2018-10-19T11:48:02.771Z,15644.00
2018-10-19T11:49:02.815Z,16864.00
2018-10-19T11:50:02.759Z,18240.00
2018-10-19T11:51:02.761Z,20000.00
2018-10-19T11:52:02.765Z,22464.00
2018-10-19T11:53:02.711Z,24128.00
2018-10-19T11:54:02.710Z,24448.00
2018-10-19T11:55:02.723Z,23520.00
2018-10-19T11:56:02.673Z,21504.00
2018-10-19T11:57:02.720Z,19712.00
2018-10-19T11:58:02.731Z,18144.00
2018-10-19T11:59:02.661Z,16992.00
2018-10-19T12:00:02.629Z,17824.00
2018-10-19T12:01:02.627Z,18944.00
2018-10-19T12:02:02.609Z,19328.00
2018-10-19T12:03:02.597Z,19296.00
2018-10-19T12:04:02.661Z,20000.00
2018-10-19T12:05:02.579Z,20224.00
2018-10-19T12:06:02.566Z,18528.00
2018-10-19T12:07:02.596Z,17248.00
2018-10-19T12:08:02.543Z,16960.00
2018-10-19T12:09:02.541Z,18016.00
2018-10-19T12:10:02.583Z,18240.00
2018-10-19T12:11:02.512Z,18624.00
2018-10-19T12:12:02.510Z,18976.00
2018-10-19T12:13:02.541Z,19168.00
2018-10-19T12:14:02.512Z,19296.00
2018-10-19T12:15:02.493Z,18880.00
2018-10-19T12:16:02.520Z,18080.00
2018-10-19T12:17:02.640Z,17696.00
2018-10-19T12:18:02.435Z,17216.00
2018-10-19T12:19:02.481Z,16256.00
2018-10-19T12:20:02.413Z,16032.00
2018-10-19T12:21:02.495Z,16256.00
2018-10-19T12:22:02.387Z,16160.00
2018-10-19T12:23:02.383Z,16352.00
2018-10-19T12:24:02.411Z,16800.00
2018-10-19T12:25:02.458Z,17024.00
2018-10-19T12:26:02.395Z,17792.00
2018-10-19T12:27:02.384Z,17920.00
2018-10-19T12:28:02.339Z,16864.00
2018-10-19T12:29:02.336Z,15316.00
2018-10-19T12:30:02.302Z,15000.00
2018-10-19T12:31:02.337Z,13508.00
2018-10-19T12:32:02.321Z,13020.00
2018-10-19T12:33:02.304Z,12672.00